Time;durP1;ratioP1;P1;durP2;ratioP2;P2;SDS_P1;SDS_P2;PMS_P1;PMS_P2;Temp;Humidity;BMP_temperature;BMP_pressure;BME280_temperature;BME280_humidity;BME280_pressure;Samples;Min_cycle;Max_cycle;Signal;HPM_P1;HPM_P2
2021/11/24 00:00:49;;;;;;;92.70;49.97;;;8.70;99.90;;;;;;5099708;28;20058;-81
2021/11/24 00:03:15;;;;;;;94.80;49.43;;;8.60;99.90;;;;;;5099776;28;20378;-81
2021/11/24 00:05:41;;;;;;;98.20;49.73;;;8.60;99.90;;;;;;5115842;28;20471;-82
2021/11/24 00:08:07;;;;;;;92.23;47.93;;;8.70;99.90;;;;;;5102796;28;20023;-83
2021/11/24 00:10:35;;;;;;;101.07;50.70;;;8.60;99.90;;;;;;5102631;28;20034;-82
2021/11/24 00:13:02;;;;;;;104.63;53.40;;;8.60;99.90;;;;;;5103368;28;20409;-81
2021/11/24 00:15:28;;;;;;;93.23;52.90;;;8.70;99.90;;;;;;5121638;28;20032;-81
2021/11/24 00:17:54;;;;;;;88.97;51.10;;;8.70;99.90;;;;;;5119895;28;20095;-81
2021/11/24 00:20:20;;;;;;;97.20;49.13;;;8.70;99.90;;;;;;5120556;28;20047;-80
2021/11/24 00:22:46;;;;;;;90.20;47.40;;;8.80;99.90;;;;;;5121835;28;20045;-81
2021/11/24 00:25:12;;;;;;;97.07;49.77;;;8.80;99.90;;;;;;5103484;28;20035;-81
2021/11/24 00:27:38;;;;;;;96.03;49.70;;;8.80;99.90;;;;;;5122104;28;20180;-81
2021/11/24 00:30:05;;;;;;;87.03;47.67;;;8.70;99.90;;;;;;5105116;28;20059;-82
2021/11/24 00:32:31;;;;;;;102.27;47.80;;;8.70;99.90;;;;;;5123742;28;20035;-80
2021/11/24 00:34:57;;;;;;;102.87;49.47;;;8.70;99.90;;;;;;5127804;28;20054;-81
2021/11/24 00:37:23;;;;;;;96.70;47.17;;;8.70;99.90;;;;;;5121081;28;20028;-80
2021/11/24 00:39:49;;;;;;;88.63;46.63;;;8.70;99.90;;;;;;5120748;28;20079;-82
2021/11/24 00:42:15;;;;;;;84.53;46.23;;;8.70;99.90;;;;;;5119778;28;20019;-80
2021/11/24 00:44:40;;;;;;;88.40;47.77;;;8.70;99.90;;;;;;5121061;28;20494;-80
2021/11/24 00:47:08;;;;;;;84.63;45.30;;;8.70;99.90;;;;;;5102471;28;20031;-81
2021/11/24 00:49:34;;;;;;;81.43;46.30;;;8.80;99.90;;;;;;5102045;28;20028;-78
2021/11/24 00:52:00;;;;;;;84.40;46.77;;;8.70;99.90;;;;;;5119848;28;20024;-80
2021/11/24 00:54:25;;;;;;;79.37;44.53;;;8.80;99.90;;;;;;5101514;28;20037;-80
2021/11/24 00:56:51;;;;;;;76.90;44.40;;;8.80;99.90;;;;;;5101526;28;20032;-80
2021/11/24 00:59:17;;;;;;;76.97;42.70;;;8.80;99.90;;;;;;5118271;28;20039;-82
2021/11/24 01:01:42;;;;;;;80.60;43.93;;;8.80;99.90;;;;;;5118708;28;20475;-81
2021/11/24 01:04:08;;;;;;;78.70;44.43;;;8.70;99.90;;;;;;5101501;28;20519;-81
2021/11/24 01:06:33;;;;;;;76.63;43.50;;;8.70;99.90;;;;;;5119179;28;20088;-78
2021/11/24 01:08:59;;;;;;;77.57;44.23;;;8.80;99.90;;;;;;5102643;28;20147;-80
2021/11/24 01:11:25;;;;;;;76.03;43.53;;;8.80;99.90;;;;;;5119388;28;20346;-79
2021/11/24 01:13:51;;;;;;;72.20;42.60;;;8.80;99.90;;;;;;5102210;28;20464;-81
2021/11/24 01:16:17;;;;;;;79.20;44.27;;;8.80;99.90;;;;;;5118643;28;20036;-81
2021/11/24 01:18:42;;;;;;;74.70;44.03;;;8.90;99.90;;;;;;5101258;28;20472;-80
2021/11/24 01:21:08;;;;;;;80.13;44.47;;;8.90;99.90;;;;;;5118768;28;20088;-80
2021/11/24 01:23:34;;;;;;;80.53;44.83;;;8.80;99.90;;;;;;5119650;28;20031;-81
2021/11/24 01:25:59;;;;;;;77.63;43.27;;;8.80;99.90;;;;;;5103848;28;20031;-81
2021/11/24 01:28:26;;;;;;;77.97;41.93;;;8.70;99.90;;;;;;5119437;28;20026;-81
2021/11/24 01:30:52;;;;;;;77.80;42.67;;;8.70;99.90;;;;;;5120482;28;20036;-80
2021/11/24 01:33:18;;;;;;;75.40;42.83;;;8.70;99.90;;;;;;5084950;28;20357;-80
2021/11/24 01:35:44;;;;;;;75.43;42.47;;;8.70;99.90;;;;;;5119043;28;20032;-81
2021/11/24 01:38:10;;;;;;;74.50;41.23;;;8.80;99.90;;;;;;5119321;28;20395;-81
2021/11/24 01:40:35;;;;;;;76.27;42.43;;;8.80;99.90;;;;;;5101843;28;20475;-80
2021/11/24 01:43:01;;;;;;;92.43;44.17;;;8.80;99.90;;;;;;5118637;28;20107;-81
2021/11/24 01:45:27;;;;;;;118.83;48.77;;;8.70;99.90;;;;;;5101652;28;20438;-81
2021/11/24 01:47:53;;;;;;;99.27;46.40;;;8.60;99.90;;;;;;5118825;28;20024;-80
2021/11/24 01:50:20;;;;;;;245.17;49.37;;;8.50;99.90;;;;;;5119668;28;20047;-81
2021/11/24 01:52:47;;;;;;;110.27;47.13;;;8.50;99.90;;;;;;5118220;28;20483;-81
2021/11/24 01:55:14;;;;;;;92.37;46.33;;;8.40;99.90;;;;;;5100844;28;20072;-80
2021/11/24 01:57:43;;;;;;;99.97;45.77;;;8.40;99.90;;;;;;5117512;28;20085;-81
2021/11/24 02:00:10;;;;;;;97.67;45.60;;;8.40;99.90;;;;;;5117963;28;20390;-80
2021/11/24 02:02:36;;;;;;;92.00;45.47;;;8.40;99.90;;;;;;5117145;28;20058;-81
2021/11/24 02:05:02;;;;;;;87.73;45.43;;;8.50;99.90;;;;;;5101008;28;20476;-81
2021/11/24 02:07:28;;;;;;;97.37;46.60;;;8.50;99.90;;;;;;5100736;28;20106;-81
2021/11/24 02:09:54;;;;;;;106.67;46.83;;;8.50;99.90;;;;;;5119088;28;20116;-80
2021/11/24 02:12:19;;;;;;;112.70;48.73;;;8.50;99.90;;;;;;5117871;28;20042;-80
2021/11/24 02:14:45;;;;;;;113.37;47.37;;;8.50;99.90;;;;;;5117154;28;20032;-81
2021/11/24 02:17:15;;;;;;;100.37;46.33;;;8.40;99.90;;;;;;5117470;28;20031;-81
2021/11/24 02:19:41;;;;;;;115.00;48.10;;;8.50;99.90;;;;;;5118560;28;20033;-79
2021/11/24 02:22:07;;;;;;;100.10;47.80;;;8.50;99.90;;;;;;5118551;28;20047;-81
2021/11/24 02:24:35;;;;;;;115.07;47.50;;;8.50;99.90;;;;;;5100123;28;20031;-81
2021/11/24 02:27:05;;;;;;;100.90;47.00;;;8.50;99.90;;;;;;5117623;28;20020;-79
2021/11/24 02:29:33;;;;;;;107.50;47.87;;;8.40;99.90;;;;;;5117475;28;20424;-80
2021/11/24 02:32:00;;;;;;;127.70;49.63;;;8.40;99.90;;;;;;5119787;28;20027;-79
2021/11/24 02:34:27;;;;;;;119.80;47.90;;;8.50;99.90;;;;;;5118250;28;20023;-81
2021/11/24 02:36:54;;;;;;;103.10;47.40;;;8.50;99.90;;;;;;5118192;28;20367;-80
2021/11/24 02:39:20;;;;;;;123.10;48.20;;;8.40;99.90;;;;;;5101262;28;20033;-81
2021/11/24 02:41:45;;;;;;;102.20;46.87;;;8.40;99.90;;;;;;5118343;28;20024;-81
2021/11/24 02:44:20;;;;;;;108.83;47.53;;;8.40;99.90;;;;;;5100534;28;20430;-80
2021/11/24 02:46:47;;;;;;;117.73;46.60;;;8.40;99.90;;;;;;5101467;28;20475;-82
2021/11/24 02:49:13;;;;;;;113.80;47.97;;;8.40;99.90;;;;;;5117692;28;20073;-79
2021/11/24 02:51:41;;;;;;;102.60;47.03;;;8.40;99.90;;;;;;5117274;28;20023;-81
2021/11/24 02:54:06;;;;;;;105.93;47.23;;;8.40;99.90;;;;;;5100678;28;20024;-80
2021/11/24 02:56:32;;;;;;;96.03;45.57;;;8.50;99.90;;;;;;5117086;28;20034;-80
2021/11/24 02:58:58;;;;;;;100.30;45.87;;;8.50;99.90;;;;;;5118886;28;20053;-81
2021/11/24 03:01:24;;;;;;;128.93;46.73;;;8.50;99.90;;;;;;5117104;28;20023;-80
2021/11/24 03:03:50;;;;;;;99.03;45.80;;;8.60;99.90;;;;;;5116074;28;20032;-79
2021/11/24 03:06:15;;;;;;;162.20;47.23;;;8.60;99.90;;;;;;5117471;28;20367;-81
2021/11/24 03:08:41;;;;;;;128.83;46.17;;;8.60;99.90;;;;;;5099397;28;20027;-80
2021/11/24 03:11:07;;;;;;;136.97;47.03;;;8.60;99.90;;;;;;5099853;28;20049;-80
2021/11/24 03:13:33;;;;;;;107.83;45.80;;;8.50;99.90;;;;;;5099662;28;20061;-81
2021/11/24 03:15:59;;;;;;;97.13;45.03;;;8.60;99.90;;;;;;5100136;28;20501;-79
2021/11/24 03:18:26;;;;;;;96.67;44.67;;;8.60;99.90;;;;;;5116636;28;20044;-80
2021/11/24 03:20:52;;;;;;;89.50;43.10;;;8.60;99.90;;;;;;5116376;28;20058;-80
2021/11/24 03:23:20;;;;;;;103.80;45.13;;;8.60;99.90;;;;;;5099960;28;20149;-80
2021/11/24 03:25:45;;;;;;;144.03;47.40;;;8.70;99.90;;;;;;5083571;28;20035;-80
2021/11/24 03:28:11;;;;;;;124.83;46.60;;;8.70;99.90;;;;;;5099989;28;20036;-80
2021/11/24 03:30:38;;;;;;;104.30;44.97;;;8.60;99.90;;;;;;5118492;28;20032;-80
2021/11/24 03:33:04;;;;;;;104.23;44.87;;;8.60;99.90;;;;;;5118016;28;20024;-81
2021/11/24 03:35:33;;;;;;;100.40;44.80;;;8.60;99.90;;;;;;5117983;28;20028;-80
2021/11/24 03:38:00;;;;;;;136.43;47.00;;;8.60;99.90;;;;;;5116858;28;20046;-79
2021/11/24 03:40:28;;;;;;;104.30;46.47;;;8.60;99.90;;;;;;5100129;28;20122;-80
2021/11/24 03:42:54;;;;;;;123.30;45.80;;;8.60;99.90;;;;;;5116844;28;20028;-80
2021/11/24 03:45:34;;;;;;;108.43;45.83;;;8.60;99.90;;;;;;5118016;28;20567;-81
2021/11/24 03:48:00;;;;;;;113.60;46.00;;;8.60;99.90;;;;;;5115979;28;20031;-79
2021/11/24 03:50:28;;;;;;;109.30;45.27;;;8.50;99.90;;;;;;5116494;28;20387;-80
2021/11/24 03:52:54;;;;;;;168.07;45.13;;;8.50;99.90;;;;;;5116346;28;20471;-80
2021/11/24 03:55:20;;;;;;;120.57;46.67;;;8.50;99.90;;;;;;5118552;28;20034;-79
2021/11/24 03:57:46;;;;;;;141.00;46.00;;;8.40;99.90;;;;;;5117565;28;20103;-79
2021/11/24 04:00:16;;;;;;;106.13;46.07;;;8.30;99.90;;;;;;5116602;28;20020;-79
2021/11/24 04:02:41;;;;;;;138.47;46.40;;;8.30;99.90;;;;;;5115900;28;20035;-79
2021/11/24 04:05:10;;;;;;;110.10;46.50;;;8.40;99.90;;;;;;5121749;28;20031;-79
2021/11/24 04:07:36;;;;;;;105.67;46.63;;;8.40;99.90;;;;;;5100666;28;20024;-81
2021/11/24 04:10:04;;;;;;;106.83;46.93;;;8.50;99.90;;;;;;5115575;28;20040;-80
2021/11/24 04:12:30;;;;;;;109.97;45.70;;;8.50;99.90;;;;;;5117313;28;20042;-80
2021/11/24 04:14:55;;;;;;;110.63;45.53;;;8.60;99.90;;;;;;5098778;28;20032;-79
2021/11/24 04:17:21;;;;;;;102.77;45.07;;;8.70;99.90;;;;;;5099328;28;20127;-80
2021/11/24 04:19:48;;;;;;;144.00;46.23;;;8.70;99.90;;;;;;5117444;28;20019;-80
2021/11/24 04:22:13;;;;;;;127.13;46.07;;;8.70;99.90;;;;;;5115955;28;20059;-80
2021/11/24 04:24:40;;;;;;;211.73;47.57;;;8.50;99.90;;;;;;5119964;28;20034;-80
2021/11/24 04:27:06;;;;;;;132.10;48.13;;;8.50;99.90;;;;;;5118309;28;20023;-81
2021/11/24 04:29:33;;;;;;;122.53;47.50;;;8.40;99.90;;;;;;5116492;28;20394;-80
2021/11/24 04:31:58;;;;;;;100.70;44.20;;;8.40;99.90;;;;;;5116900;28;20020;-80
2021/11/24 04:34:24;;;;;;;109.20;45.63;;;8.40;99.90;;;;;;5115971;28;20031;-80
2021/11/24 04:36:50;;;;;;;256.33;48.73;;;8.40;99.90;;;;;;5116640;28;20039;-79
2021/11/24 04:39:16;;;;;;;136.63;48.27;;;8.50;99.90;;;;;;5116212;28;20356;-81
2021/11/24 04:41:41;;;;;;;110.03;44.93;;;8.40;99.90;;;;;;5098398;28;20051;-82
2021/11/24 04:44:07;;;;;;;128.30;46.37;;;8.30;99.90;;;;;;5116826;28;20371;-80
2021/11/24 04:46:33;;;;;;;153.30;47.53;;;8.30;99.90;;;;;;5116803;28;20025;-80
2021/11/24 04:49:00;;;;;;;111.00;47.43;;;8.20;99.90;;;;;;5098701;28;20027;-81
2021/11/24 04:51:26;;;;;;;138.13;47.47;;;8.10;99.90;;;;;;5081870;28;20052;-81
2021/11/24 04:53:51;;;;;;;123.57;46.37;;;8.10;99.90;;;;;;5118958;28;20032;-82
2021/11/24 04:56:17;;;;;;;114.43;45.83;;;8.10;99.90;;;;;;5119273;28;20465;-81
2021/11/24 04:58:58;;;;;;;116.37;44.47;;;8.20;99.90;;;;;;5119327;28;20028;-80
2021/11/24 05:01:24;;;;;;;115.03;47.30;;;8.20;99.90;;;;;;5121230;28;20498;-80
2021/11/24 05:03:50;;;;;;;94.23;45.13;;;8.20;99.90;;;;;;5118832;28;20023;-81
2021/11/24 05:06:17;;;;;;;97.70;45.50;;;8.20;99.90;;;;;;5119530;28;20063;-79
2021/11/24 05:08:43;;;;;;;108.63;47.13;;;8.20;99.90;;;;;;5119471;28;20026;-80
2021/11/24 05:11:10;;;;;;;97.20;47.70;;;8.20;99.90;;;;;;5085647;28;20028;-80
2021/11/24 05:13:38;;;;;;;87.10;44.73;;;8.10;99.90;;;;;;5119120;28;20024;-80
2021/11/24 05:16:05;;;;;;;85.17;44.37;;;8.00;99.90;;;;;;5102218;28;20024;-81
2021/11/24 05:18:38;;;;;;;83.73;44.37;;;8.00;99.90;;;;;;5101702;28;20024;-79
2021/11/24 05:21:13;;;;;;;98.00;47.50;;;8.00;99.90;;;;;;5117859;28;20096;-81
2021/11/24 05:23:42;;;;;;;84.07;45.10;;;7.90;99.90;;;;;;5119820;28;20097;-79
2021/11/24 05:26:08;;;;;;;84.77;44.50;;;7.80;99.90;;;;;;5119252;28;20031;-80
2021/11/24 05:28:34;;;;;;;87.43;44.70;;;7.70;99.90;;;;;;5102495;28;20040;-81
2021/11/24 05:31:01;;;;;;;83.77;44.27;;;7.70;99.90;;;;;;5102653;28;20478;-81
2021/11/24 05:33:27;;;;;;;88.17;45.10;;;7.70;99.90;;;;;;5118852;28;20024;-80
2021/11/24 05:35:53;;;;;;;106.77;47.20;;;7.70;99.90;;;;;;5118171;28;20035;-83
2021/11/24 05:38:19;;;;;;;94.60;44.93;;;7.70;99.90;;;;;;5101918;28;20035;-81
2021/11/24 05:40:45;;;;;;;93.87;44.50;;;7.80;99.90;;;;;;5085644;28;20050;-82
2021/11/24 05:43:11;;;;;;;116.43;47.93;;;7.80;99.90;;;;;;5119358;28;20087;-80
2021/11/24 05:45:40;;;;;;;99.53;46.57;;;7.80;99.90;;;;;;5102185;28;20066;-80
2021/11/24 05:48:09;;;;;;;103.40;46.10;;;7.70;99.90;;;;;;5102486;28;20034;-80
2021/11/24 05:50:35;;;;;;;99.90;46.03;;;7.70;99.90;;;;;;5118875;28;20482;-80
2021/11/24 05:53:03;;;;;;;102.97;46.80;;;7.70;99.90;;;;;;5102816;28;20032;-80
2021/11/24 05:55:28;;;;;;;91.30;46.43;;;7.80;99.90;;;;;;5118625;28;20028;-82
2021/11/24 05:57:54;;;;;;;118.07;48.20;;;7.70;99.90;;;;;;5119208;28;20079;-81
2021/11/24 06:00:20;;;;;;;145.10;49.30;;;7.70;99.90;;;;;;5085202;28;20028;-79
2021/11/24 06:02:46;;;;;;;125.17;49.70;;;7.60;99.90;;;;;;5121068;28;20035;-79
2021/11/24 06:05:13;;;;;;;105.87;48.77;;;7.60;99.90;;;;;;5121552;28;20058;-81
2021/11/24 06:07:39;;;;;;;98.60;47.20;;;7.50;99.90;;;;;;5104307;28;20030;-79
2021/11/24 06:10:07;;;;;;;154.27;49.40;;;7.40;99.90;;;;;;5122790;28;20099;-80
2021/11/24 06:12:33;;;;;;;121.07;50.93;;;7.30;99.90;;;;;;5119531;28;20419;-80
2021/11/24 06:14:59;;;;;;;122.67;50.23;;;7.40;99.90;;;;;;5103129;28;20028;-82
2021/11/24 06:17:25;;;;;;;128.10;52.83;;;7.30;99.90;;;;;;5115130;28;20028;-81
2021/11/24 06:19:51;;;;;;;119.97;50.27;;;7.30;99.90;;;;;;5115546;28;20089;-81
2021/11/24 06:22:17;;;;;;;117.83;49.60;;;7.40;99.90;;;;;;5118389;28;20046;-82
2021/11/24 06:24:43;;;;;;;119.00;50.87;;;7.40;99.90;;;;;;5120380;28;20143;-81
2021/11/24 06:27:08;;;;;;;124.70;51.47;;;7.40;99.90;;;;;;5116589;28;20030;-82
2021/11/24 06:29:34;;;;;;;137.07;53.57;;;7.40;99.90;;;;;;5118639;28;20027;-81
2021/11/24 06:32:00;;;;;;;220.00;59.57;;;7.40;99.90;;;;;;5114292;28;20024;-81
2021/11/24 06:34:25;;;;;;;135.50;50.87;;;7.50;99.90;;;;;;5081600;28;20024;-81
2021/11/24 06:36:53;;;;;;;158.97;54.77;;;7.40;99.90;;;;;;5114886;28;20037;-81
2021/11/24 06:39:20;;;;;;;170.33;54.57;;;7.40;99.90;;;;;;5115800;28;20024;-81
2021/11/24 06:41:46;;;;;;;146.63;53.43;;;7.40;99.90;;;;;;5097305;28;20024;-80
2021/11/24 06:44:11;;;;;;;139.33;49.97;;;7.30;99.90;;;;;;5115435;28;20521;-81
2021/11/24 06:46:37;;;;;;;154.90;53.13;;;7.50;99.90;;;;;;5114619;28;20077;-79
2021/11/24 06:49:03;;;;;;;434.50;63.73;;;7.60;99.90;;;;;;5114517;28;20077;-81
2021/11/24 06:51:29;;;;;;;175.17;54.70;;;7.60;99.90;;;;;;5114210;28;20081;-82
2021/11/24 06:53:54;;;;;;;176.10;52.50;;;7.70;99.90;;;;;;5097661;28;20035;-82
2021/11/24 06:56:20;;;;;;;153.00;53.43;;;7.70;99.90;;;;;;5096753;28;20069;-82
2021/11/24 06:58:46;;;;;;;180.37;56.10;;;7.80;99.90;;;;;;5113930;28;20038;-80
2021/11/24 07:01:11;;;;;;;247.77;57.37;;;7.80;99.90;;;;;;5114175;28;20031;-80
2021/11/24 07:03:37;;;;;;;139.30;53.77;;;7.80;99.90;;;;;;5113691;28;20383;-82
2021/11/24 07:06:03;;;;;;;270.90;56.73;;;7.80;99.90;;;;;;5114641;28;20028;-80
2021/11/24 07:08:28;;;;;;;195.07;56.40;;;7.80;99.90;;;;;;5096410;28;20427;-80
2021/11/24 07:10:54;;;;;;;144.63;54.00;;;7.70;99.90;;;;;;5114867;28;20511;-80
2021/11/24 07:13:20;;;;;;;202.07;55.97;;;7.70;99.90;;;;;;5096389;28;20118;-80
2021/11/24 07:15:45;;;;;;;136.77;51.37;;;7.70;99.90;;;;;;5096193;28;20368;-80
2021/11/24 07:18:11;;;;;;;322.00;59.77;;;7.80;99.90;;;;;;5113169;28;20472;-81
2021/11/24 07:20:37;;;;;;;270.67;57.97;;;7.80;99.90;;;;;;5114541;28;20080;-80
2021/11/24 07:23:03;;;;;;;159.60;54.67;;;7.80;99.90;;;;;;5112825;28;20039;-80
2021/11/24 07:25:29;;;;;;;153.47;57.23;;;7.70;99.90;;;;;;5113724;28;20066;-80
2021/11/24 07:27:55;;;;;;;149.77;56.23;;;7.80;99.90;;;;;;5114357;28;20047;-80
2021/11/24 07:30:22;;;;;;;110.50;53.27;;;7.90;99.90;;;;;;5112903;28;20073;-80
2021/11/24 07:32:48;;;;;;;116.40;56.43;;;7.90;99.90;;;;;;5112294;28;20031;-80
2021/11/24 07:35:14;;;;;;;109.83;53.23;;;7.90;99.90;;;;;;5112374;28;20024;-80
2021/11/24 07:37:39;;;;;;;108.97;54.40;;;7.80;99.90;;;;;;5118868;28;20031;-79
2021/11/24 07:40:07;;;;;;;103.53;52.60;;;7.70;99.90;;;;;;5117271;28;20024;-79
2021/11/24 07:42:33;;;;;;;107.70;54.03;;;7.70;99.90;;;;;;5112600;28;20027;-79
2021/11/24 07:44:59;;;;;;;108.17;53.20;;;7.80;99.90;;;;;;5096392;28;20032;-79
2021/11/24 07:47:25;;;;;;;116.73;54.53;;;7.80;99.90;;;;;;5113030;28;20058;-80
2021/11/24 07:49:51;;;;;;;124.97;55.17;;;7.90;99.90;;;;;;5113802;28;20074;-81
2021/11/24 07:52:17;;;;;;;118.97;54.30;;;7.80;99.90;;;;;;5114778;28;20031;-80
2021/11/24 07:54:43;;;;;;;125.50;55.00;;;7.80;99.90;;;;;;5112430;28;20094;-80
2021/11/24 07:57:09;;;;;;;128.37;54.47;;;7.80;99.90;;;;;;5096920;28;20034;-82
2021/11/24 07:59:37;;;;;;;139.63;53.27;;;7.90;99.90;;;;;;5115160;28;20035;-78
2021/11/24 08:02:04;;;;;;;142.10;53.20;;;7.80;99.90;;;;;;5122322;28;20019;-80
2021/11/24 08:04:29;;;;;;;142.73;53.67;;;7.80;99.90;;;;;;5121640;28;20024;-80
2021/11/24 08:06:59;;;;;;;136.23;52.40;;;7.90;99.90;;;;;;5115927;28;20038;-80
2021/11/24 08:09:26;;;;;;;128.27;50.93;;;7.90;99.90;;;;;;5113106;28;20032;-80
2021/11/24 08:11:52;;;;;;;126.33;48.07;;;7.90;99.90;;;;;;5113726;28;20062;-79
2021/11/24 08:14:17;;;;;;;123.93;49.10;;;7.80;99.90;;;;;;5112491;28;20069;-79
2021/11/24 08:16:43;;;;;;;115.77;46.37;;;7.80;99.90;;;;;;5095140;28;20023;-80
2021/11/24 08:19:08;;;;;;;120.40;49.10;;;7.80;99.90;;;;;;5112360;28;20433;-79
2021/11/24 08:21:34;;;;;;;118.17;46.97;;;7.90;99.90;;;;;;5113507;28;20132;-81
2021/11/24 08:24:00;;;;;;;124.90;46.97;;;7.90;99.90;;;;;;5096090;28;20032;-80
2021/11/24 08:26:26;;;;;;;114.00;44.43;;;8.00;99.90;;;;;;5112595;28;20168;-80
2021/11/24 08:28:52;;;;;;;112.93;43.27;;;8.00;99.90;;;;;;5117009;28;20072;-80
2021/11/24 08:31:17;;;;;;;119.93;43.60;;;8.10;99.90;;;;;;5116430;28;20027;-81
2021/11/24 08:33:43;;;;;;;103.47;40.97;;;8.10;99.90;;;;;;5099562;28;20036;-83
2021/11/24 08:36:11;;;;;;;104.17;40.13;;;8.00;99.90;;;;;;5117006;28;20024;-81
2021/11/24 08:38:38;;;;;;;107.93;42.03;;;7.90;99.90;;;;;;5116320;28;20031;-80
2021/11/24 08:41:04;;;;;;;109.03;42.60;;;7.90;99.90;;;;;;5082284;28;20032;-80
2021/11/24 08:43:30;;;;;;;100.33;40.10;;;7.90;99.90;;;;;;5117499;28;20111;-81
2021/11/24 08:45:56;;;;;;;109.40;41.17;;;8.00;99.90;;;;;;5116099;28;20039;-81
2021/11/24 08:48:22;;;;;;;118.27;43.77;;;8.10;99.90;;;;;;5118069;28;20035;-82
2021/11/24 08:50:48;;;;;;;116.80;43.47;;;8.00;99.90;;;;;;5116353;28;20139;-80
2021/11/24 08:53:13;;;;;;;111.53;41.73;;;8.00;99.90;;;;;;5117295;28;20055;-82
2021/11/24 08:55:39;;;;;;;123.20;41.77;;;8.00;99.90;;;;;;5116002;28;20459;-80
2021/11/24 08:58:05;;;;;;;116.53;39.90;;;7.90;99.90;;;;;;5099321;28;20115;-81
2021/11/24 09:00:30;;;;;;;128.23;40.43;;;7.80;99.90;;;;;;5101980;28;20115;-80
2021/11/24 09:02:56;;;;;;;130.40;40.67;;;7.90;99.90;;;;;;5119259;28;20031;-81
2021/11/24 09:05:22;;;;;;;121.73;39.60;;;7.80;99.90;;;;;;5117913;28;20368;-82
2021/11/24 09:07:49;;;;;;;124.23;39.27;;;7.90;99.90;;;;;;5116212;28;20036;-81
2021/11/24 09:10:16;;;;;;;132.33;39.53;;;7.90;99.90;;;;;;5100090;28;20036;-80
2021/11/24 09:12:42;;;;;;;120.67;39.93;;;7.80;99.90;;;;;;5082403;28;20039;-81
2021/11/24 09:15:08;;;;;;;121.10;38.10;;;7.80;99.90;;;;;;5115669;28;20123;-80
2021/11/24 09:17:34;;;;;;;135.83;41.37;;;7.80;99.90;;;;;;5115408;28;20063;-80
2021/11/24 09:19:59;;;;;;;128.27;40.10;;;7.80;99.90;;;;;;5117938;28;20023;-80
2021/11/24 09:22:25;;;;;;;128.40;41.07;;;7.80;99.90;;;;;;5118157;28;20048;-81
2021/11/24 09:24:59;;;;;;;127.20;40.83;;;7.70;99.90;;;;;;5119416;28;20031;-80
2021/11/24 09:27:35;;;;;;;124.87;39.10;;;7.80;99.90;;;;;;5138398;28;20016;-80
2021/11/24 09:30:04;;;;;;;127.70;40.77;;;7.90;99.90;;;;;;5139491;28;20038;-82
2021/11/24 09:32:30;;;;;;;125.20;39.83;;;8.00;99.90;;;;;;5137567;28;20053;-82
2021/11/24 09:34:56;;;;;;;114.77;39.53;;;8.00;99.90;;;;;;5106087;28;20134;-82
2021/11/24 09:37:22;;;;;;;112.53;38.50;;;8.00;99.90;;;;;;5104519;28;20490;-83
2021/11/24 09:39:48;;;;;;;103.43;37.80;;;8.00;99.90;;;;;;5118654;28;20024;-82
2021/11/24 09:42:16;;;;;;;125.33;40.93;;;8.00;99.90;;;;;;5118150;28;20376;-81
2021/11/24 09:44:46;;;;;;;111.73;38.73;;;8.00;99.80;;;;;;5117328;28;20035;-83
2021/11/24 09:47:12;;;;;;;109.17;39.03;;;8.00;99.90;;;;;;5116145;28;20118;-81
2021/11/24 09:49:39;;;;;;;128.07;42.03;;;8.00;99.90;;;;;;5116193;28;20164;-81
2021/11/24 09:52:07;;;;;;;100.80;37.27;;;8.00;99.80;;;;;;5098875;28;20028;-83
2021/11/24 09:54:33;;;;;;;103.00;40.20;;;8.00;99.60;;;;;;5115453;28;20028;-82
2021/11/24 09:56:58;;;;;;;93.53;37.07;;;7.90;99.40;;;;;;5116809;28;20498;-80
2021/11/24 09:59:24;;;;;;;100.10;40.27;;;7.80;99.40;;;;;;5099381;28;20051;-80
2021/11/24 10:01:50;;;;;;;104.17;40.43;;;7.80;99.60;;;;;;5115277;28;20031;-80
2021/11/24 10:04:16;;;;;;;98.73;40.50;;;7.80;99.70;;;;;;5081580;28;20024;-82
2021/11/24 10:06:41;;;;;;;102.73;42.07;;;7.80;99.80;;;;;;5115821;28;20572;-81
2021/11/24 10:09:09;;;;;;;99.97;41.50;;;7.80;99.70;;;;;;5099744;28;20460;-80
2021/11/24 10:11:35;;;;;;;98.43;41.70;;;7.90;99.80;;;;;;5084399;28;20024;-82
2021/11/24 10:14:01;;;;;;;105.70;42.33;;;8.00;99.90;;;;;;5118537;28;20387;-80
2021/11/24 10:16:32;;;;;;;94.10;40.00;;;8.00;99.50;;;;;;5117613;28;20020;-81
2021/11/24 10:19:06;;;;;;;92.37;38.50;;;8.10;99.70;;;;;;5115198;28;20493;-81
2021/11/24 10:21:32;;;;;;;78.13;35.87;;;8.20;99.70;;;;;;5116063;28;20048;-80
2021/11/24 10:24:02;;;;;;;74.00;36.20;;;8.30;99.40;;;;;;5117392;28;20030;-82
2021/11/24 10:26:34;;;;;;;79.80;37.87;;;8.40;99.20;;;;;;5115480;28;20456;-82
2021/11/24 10:29:10;;;;;;;78.73;36.07;;;8.50;99.10;;;;;;5115217;28;20165;-81
2021/11/24 10:31:37;;;;;;;75.47;35.93;;;8.60;98.80;;;;;;5114973;28;20023;-81
2021/11/24 10:34:26;;;;;;;69.17;33.67;;;8.60;98.50;;;;;;5116540;28;20495;-79
2021/11/24 10:37:06;;;;;;;66.60;34.10;;;8.40;98.40;;;;;;5114441;28;20404;-81
2021/11/24 10:39:54;;;;;;;66.20;33.40;;;8.30;98.50;;;;;;5115615;28;20050;-81
2021/11/24 10:42:31;;;;;;;70.13;35.23;;;8.20;98.50;;;;;;5116268;28;20027;-81
2021/11/24 10:44:59;;;;;;;64.43;32.37;;;8.20;98.50;;;;;;5115768;28;20053;-81
2021/11/24 10:47:27;;;;;;;73.77;36.47;;;8.00;98.50;;;;;;5120006;28;20020;-83
2021/11/24 10:49:58;;;;;;;74.10;36.60;;;8.00;98.60;;;;;;5122504;28;20038;-84
2021/11/24 10:52:35;;;;;;;67.17;34.67;;;8.00;98.80;;;;;;5124268;27;20032;-86
2021/11/24 10:55:13;;;;;;;73.77;36.37;;;8.10;98.90;;;;;;5123487;28;20061;-83
2021/11/24 10:57:41;;;;;;;67.93;34.83;;;8.20;98.90;;;;;;5125115;28;20020;-83
2021/11/24 11:00:16;;;;;;;80.10;40.30;;;8.40;98.90;;;;;;5131445;28;20023;-83
2021/11/24 11:02:44;;;;;;;74.97;38.83;;;8.40;98.60;;;;;;5135162;28;20034;-81
2021/11/24 11:05:17;;;;;;;76.17;38.07;;;8.50;98.50;;;;;;5114708;28;20024;-82
2021/11/24 11:07:48;;;;;;;79.82;39.75;;;8.40;98.40;;;;;;5134779;28;20047;-82
2021/11/24 11:10:16;;;;;;;78.47;39.60;;;8.40;98.50;;;;;;5132652;28;20023;-83
2021/11/24 11:12:46;;;;;;;81.37;39.77;;;8.50;98.50;;;;;;5133108;28;20032;-83
2021/11/24 11:15:37;;;;;;;77.83;39.27;;;8.50;98.10;;;;;;5134003;28;20027;-83
2021/11/24 11:18:11;;;;;;;78.87;41.47;;;8.40;98.00;;;;;;5129757;28;20364;-84
2021/11/24 11:20:57;;;;;;;82.87;41.90;;;8.50;98.10;;;;;;5135521;28;20008;-83
2021/11/24 11:23:33;;;;;;;81.37;40.67;;;8.60;98.30;;;;;;5132383;28;20160;-83
2021/11/24 11:26:02;;;;;;;72.63;38.77;;;8.60;97.80;;;;;;5132677;28;20038;-83
2021/11/24 11:28:35;;;;;;;79.47;41.13;;;8.60;97.90;;;;;;5132136;28;20019;-83
2021/11/24 11:31:02;;;;;;;78.05;40.30;;;8.70;98.20;;;;;;5132981;28;20022;-82
2021/11/24 11:33:49;;;;;;;76.60;39.93;;;8.80;98.00;;;;;;5129399;28;20024;-84
2021/11/24 11:36:15;;;;;;;72.77;37.80;;;8.80;97.60;;;;;;5130226;28;20032;-83
2021/11/24 11:38:50;;;;;;;77.70;39.50;;;8.80;97.40;;;;;;5129908;28;20058;-82
2021/11/24 11:41:18;;;;;;;77.83;40.40;;;8.90;98.20;;;;;;5128749;28;20091;-82
2021/11/24 11:43:49;;;;;;;76.30;37.23;;;9.00;97.70;;;;;;5128993;28;20031;-83
2021/11/24 11:46:17;;;;;;;71.00;36.80;;;9.00;97.60;;;;;;5111910;28;20455;-82
2021/11/24 11:48:44;;;;;;;73.33;38.40;;;9.20;98.20;;;;;;5128943;28;20030;-84
2021/11/24 11:51:13;;;;;;;76.93;38.37;;;9.40;98.20;;;;;;5129702;28;20080;-81
2021/11/24 11:53:43;;;;;;;71.73;37.17;;;9.50;98.00;;;;;;5127563;28;20031;-84
2021/11/24 11:56:22;;;;;;;64.27;34.27;;;9.70;97.20;;;;;;5122359;28;20028;-82
2021/11/24 11:59:05;;;;;;;69.17;37.20;;;9.70;97.10;;;;;;5123557;28;20053;-83
2021/11/24 12:01:35;;;;;;;70.75;37.40;;;9.80;96.40;;;;;;5121869;28;20091;-84
2021/11/24 12:04:19;;;;;;;71.70;38.77;;;9.80;96.00;;;;;;5120047;28;20348;-84
2021/11/24 12:06:51;;;;;;;72.07;35.80;;;9.70;95.60;;;;;;5120244;28;20027;-84
2021/11/24 12:09:21;;;;;;;72.33;37.40;;;9.60;96.10;;;;;;5117765;28;20353;-84
2021/11/24 12:12:08;;;;;;;72.93;36.90;;;9.80;96.10;;;;;;5118102;28;20073;-85
2021/11/24 12:14:43;;;;;;;69.20;35.43;;;9.90;95.80;;;;;;5117745;28;20432;-84
2021/11/24 12:17:27;;;;;;;66.50;34.37;;;10.10;95.60;;;;;;5119397;28;20122;-82
2021/11/24 12:20:14;;;;;;;66.37;35.07;;;10.20;94.70;;;;;;5121669;28;20096;-84
2021/11/24 12:25:30;;;;;;;62.43;34.13;;;10.10;94.00;;;;;;5122698;28;20149;-83
2021/11/24 12:33:08;;;;;;;71.27;37.57;;;9.50;94.00;;;;;;5122783;28;20113;-85
2021/11/24 12:35:37;;;;;;;70.67;37.57;;;9.40;94.40;;;;;;5119068;28;20032;-84
2021/11/24 12:38:04;;;;;;;67.03;37.37;;;9.40;95.20;;;;;;5119401;28;20027;-83
2021/11/24 12:40:36;;;;;;;78.50;39.13;;;9.40;95.20;;;;;;5121706;28;20038;-81